Time;durP1;ratioP1;P1;durP2;ratioP2;P2;SDS_P1;SDS_P2;PMS_P1;PMS_P2;Temp;Humidity;BMP_temperature;BMP_pressure;BME280_temperature;BME280_humidity;BME280_pressure;Samples;Min_cycle;Max_cycle;Signal;HPM_P1;HPM_P2
2021/06/20 00:01:48;;;;;;;1.90;1.70;;;;;;;14.38;78.93;95670.81;1779445;80;21018;-60
2021/06/20 00:04:16;;;;;;;1.63;1.40;;;;;;;14.41;78.37;95669.38;1780632;80;21010;-60
2021/06/20 00:06:49;;;;;;;2.00;1.63;;;;;;;14.28;78.63;95664.92;1762661;80;21086;-60
2021/06/20 00:09:17;;;;;;;1.85;1.70;;;;;;;14.24;79.20;95669.47;1783439;80;21090;-60
2021/06/20 00:11:47;;;;;;;1.77;1.40;;;;;;;14.26;78.63;95664.09;1781186;80;21038;-60
2021/06/20 00:14:14;;;;;;;2.90;1.70;;;;;;;14.34;78.63;95660.77;1749606;81;21059;-60
2021/06/20 00:16:42;;;;;;;1.97;1.70;;;;;;;14.37;78.26;95655.81;1748267;81;21027;-60
2021/06/20 00:19:08;;;;;;;3.60;1.97;;;;;;;14.40;78.09;95658.36;1777981;80;20995;-60
2021/06/20 00:21:36;;;;;;;1.90;1.70;;;;;;;14.34;78.53;95659.44;1776798;80;21557;-60
2021/06/20 00:24:05;;;;;;;2.70;2.17;;;;;;;14.22;79.37;95658.03;1779192;80;21003;-61
2021/06/20 00:26:32;;;;;;;2.00;1.77;;;;;;;14.20;78.89;95661.65;1754046;80;21487;-60
2021/06/20 00:28:59;;;;;;;2.37;1.83;;;;;;;14.17;79.23;95653.33;1763709;80;21037;-61
2021/06/20 00:31:26;;;;;;;2.10;1.70;;;;;;;14.11;80.00;95659.27;1759985;80;21132;-60
2021/06/20 00:33:52;;;;;;;4.70;1.87;;;;;;;14.12;79.67;95645.11;1769630;80;21026;-60
2021/06/20 00:36:19;;;;;;;2.10;1.87;;;;;;;14.12;79.39;95647.30;1777257;80;21476;-61
2021/06/20 00:38:45;;;;;;;2.27;2.07;;;;;;;14.17;79.14;95645.37;1759975;80;21014;-61
2021/06/20 00:41:12;;;;;;;2.60;2.30;;;;;;;14.21;79.40;95647.02;1769486;80;21015;-61
2021/06/20 00:43:39;;;;;;;3.30;2.10;;;;;;;14.24;79.27;95652.22;1773719;80;21078;-60
2021/06/20 00:46:08;;;;;;;2.70;1.93;;;;;;;14.20;80.13;95655.87;1761896;80;21021;-60
2021/06/20 00:48:33;;;;;;;6.43;2.50;;;;;;;14.18;79.54;95652.86;1776104;80;21015;-60
2021/06/20 00:51:00;;;;;;;2.50;1.70;;;;;;;14.15;80.26;95656.48;1775865;80;21010;-60
2021/06/20 00:53:26;;;;;;;2.00;1.73;;;;;;;14.11;79.89;95656.63;1776691;80;21022;-60
2021/06/20 00:55:53;;;;;;;3.03;2.30;;;;;;;14.06;80.61;95655.00;1734732;79;21100;-60
2021/06/20 00:58:24;;;;;;;2.77;1.83;;;;;;;14.12;80.69;95650.42;1760114;80;21014;-60
2021/06/20 01:00:50;;;;;;;2.90;2.20;;;;;;;14.15;80.98;95647.20;1781898;80;20983;-60
2021/06/20 01:03:17;;;;;;;2.00;1.77;;;;;;;14.16;80.94;95639.66;1774257;80;21125;-61
2021/06/20 01:05:45;;;;;;;3.40;1.60;;;;;;;14.23;80.70;95634.55;1777831;80;21500;-61
2021/06/20 01:08:12;;;;;;;2.77;2.10;;;;;;;14.23;80.30;95637.20;1776833;80;21006;-60
2021/06/20 01:10:40;;;;;;;2.00;1.90;;;;;;;14.18;80.28;95640.45;1763731;80;21503;-61
2021/06/20 01:13:11;;;;;;;1.97;1.83;;;;;;;14.28;80.09;95633.07;1787793;80;21070;-61
2021/06/20 01:15:39;;;;;;;2.20;2.00;;;;;;;14.40;80.01;95631.81;1780000;80;21010;-60
2021/06/20 01:18:06;;;;;;;1.83;1.70;;;;;;;14.35;80.06;95631.09;1777690;80;21112;-61
2021/06/20 01:20:33;;;;;;;4.73;2.10;;;;;;;14.31;79.85;95630.78;1769267;80;21081;-60
2021/06/20 01:23:00;;;;;;;2.47;1.97;;;;;;;14.24;80.39;95623.49;1782929;80;21042;-61
2021/06/20 01:25:29;;;;;;;2.30;1.57;;;;;;;14.20;80.57;95619.19;1772554;80;21062;-60
2021/06/20 01:28:03;;;;;;;2.20;1.80;;;;;;;14.14;80.65;95620.27;1773388;80;21579;-60
2021/06/20 01:30:32;;;;;;;4.10;2.13;;;;;;;14.17;80.63;95618.83;1778055;80;21082;-60
2021/06/20 01:33:01;;;;;;;2.90;1.77;;;;;;;14.18;80.28;95621.02;1784608;80;21033;-61
2021/06/20 01:35:28;;;;;;;3.00;1.90;;;;;;;14.21;79.81;95619.16;1778452;80;21110;-61
2021/06/20 01:37:56;;;;;;;2.53;2.00;;;;;;;14.20;79.50;95612.56;1771861;80;21015;-60
2021/06/20 01:40:24;;;;;;;2.43;1.67;;;;;;;14.19;79.65;95626.76;1770653;80;21019;-60
2021/06/20 01:42:52;;;;;;;3.10;1.53;;;;;;;14.22;79.90;95634.14;1777000;80;21057;-60
2021/06/20 01:45:21;;;;;;;1.60;1.50;;;;;;;14.20;79.42;95639.09;1767356;80;21008;-60
2021/06/20 01:47:51;;;;;;;1.60;1.40;;;;;;;14.20;79.36;95637.77;1774031;80;21056;-60
2021/06/20 01:50:19;;;;;;;1.90;1.80;;;;;;;14.20;79.17;95635.11;1765131;80;21022;-60
2021/06/20 01:52:46;;;;;;;3.77;1.70;;;;;;;14.09;79.33;95634.60;1777342;80;21025;-60
2021/06/20 01:55:15;;;;;;;2.50;1.57;;;;;;;14.07;79.31;95635.50;1772549;80;21010;-60
2021/06/20 01:57:45;;;;;;;3.03;1.90;;;;;;;13.99;79.73;95644.62;1771522;80;21516;-60
2021/06/20 02:00:16;;;;;;;1.90;1.80;;;;;;;13.98;79.74;95642.88;1788535;80;21074;-60
2021/06/20 02:02:45;;;;;;;2.30;2.10;;;;;;;13.90;80.62;95646.23;1789736;80;21006;-60
2021/06/20 02:05:13;;;;;;;2.53;1.70;;;;;;;13.92;80.59;95657.20;1777505;80;21097;-60
2021/06/20 02:07:40;;;;;;;2.27;2.03;;;;;;;13.95;80.38;95649.14;1760128;80;20966;-61
2021/06/20 02:10:10;;;;;;;2.10;1.90;;;;;;;13.90;80.31;95650.20;1783469;80;21027;-61
2021/06/20 02:12:38;;;;;;;1.83;1.73;;;;;;;13.88;80.38;95647.59;1769853;80;21018;-60
2021/06/20 02:15:09;;;;;;;5.37;2.00;;;;;;;13.76;80.60;95654.16;1772661;80;20983;-60
2021/06/20 02:17:36;;;;;;;2.60;1.90;;;;;;;13.70;79.95;95656.97;1760352;80;21086;-60
2021/06/20 02:20:11;;;;;;;3.40;1.87;;;;;;;13.63;81.05;95658.06;1783392;80;20991;-60
2021/06/20 02:22:40;;;;;;;2.37;2.17;;;;;;;13.56;80.66;95664.48;1787510;80;20979;-60
2021/06/20 02:25:11;;;;;;;2.37;1.90;;;;;;;13.48;80.45;95664.71;1762115;80;21057;-60
2021/06/20 02:27:37;;;;;;;2.37;1.90;;;;;;;13.51;80.42;95660.64;1772991;80;21100;-60
2021/06/20 02:30:06;;;;;;;2.10;1.90;;;;;;;13.55;80.51;95666.70;1787760;80;21092;-60
2021/06/20 02:32:34;;;;;;;2.00;1.80;;;;;;;13.45;80.81;95662.59;1783263;80;21034;-60
2021/06/20 02:35:00;;;;;;;2.17;1.97;;;;;;;13.36;80.57;95667.70;1782205;80;21027;-60
2021/06/20 02:37:27;;;;;;;2.40;2.03;;;;;;;13.24;81.55;95667.55;1790957;80;21010;-60
2021/06/20 02:39:55;;;;;;;1.90;1.80;;;;;;;13.20;81.06;95661.91;1755600;80;21065;-60
2021/06/20 02:42:22;;;;;;;2.37;1.83;;;;;;;13.16;82.10;95665.58;1773917;80;21015;-60
2021/06/20 02:44:49;;;;;;;2.00;1.80;;;;;;;13.14;82.50;95658.98;1774818;80;21041;-61
2021/06/20 02:47:17;;;;;;;4.37;1.90;;;;;;;13.12;81.67;95661.27;1760238;80;21061;-60
2021/06/20 02:49:44;;;;;;;2.33;2.00;;;;;;;13.09;82.24;95667.97;1783080;80;21030;-60
2021/06/20 02:52:14;;;;;;;1.83;1.73;;;;;;;13.08;82.52;95668.44;1777721;80;21080;-60
2021/06/20 02:54:52;;;;;;;2.10;1.90;;;;;;;13.10;82.14;95674.57;1782186;80;21022;-60
2021/06/20 02:57:25;;;;;;;2.37;1.43;;;;;;;13.07;81.84;95675.09;1784843;80;21536;-61
2021/06/20 02:59:52;;;;;;;2.08;1.55;;;;;;;13.17;81.71;95676.11;1760293;80;21076;-60
2021/06/20 03:02:19;;;;;;;2.17;1.60;;;;;;;13.15;81.71;95672.66;1778216;80;21082;-60
2021/06/20 03:04:47;;;;;;;1.40;1.30;;;;;;;13.22;81.61;95666.72;1772562;80;21012;-60
2021/06/20 03:07:15;;;;;;;2.70;1.30;;;;;;;13.31;81.47;95669.62;1769366;80;21146;-60
2021/06/20 03:09:42;;;;;;;2.30;1.30;;;;;;;13.33;81.13;95671.74;1789331;80;20987;-60
2021/06/20 03:12:11;;;;;;;2.63;1.47;;;;;;;13.26;81.43;95671.03;1768052;80;21110;-60
2021/06/20 03:14:39;;;;;;;2.77;1.70;;;;;;;13.31;81.47;95669.62;1769233;80;21026;-60
2021/06/20 03:17:07;;;;;;;2.77;1.77;;;;;;;13.45;81.41;95671.86;1764335;80;21007;-60
2021/06/20 03:19:36;;;;;;;3.23;2.00;;;;;;;13.57;81.09;95660.91;1767742;80;21006;-60
2021/06/20 03:22:05;;;;;;;2.67;2.40;;;;;;;13.66;80.63;95653.12;1763880;80;21089;-61
2021/06/20 03:24:35;;;;;;;2.60;2.30;;;;;;;13.70;80.28;95659.62;1764043;80;21046;-60
2021/06/20 03:27:03;;;;;;;2.33;1.70;;;;;;;13.64;80.34;95663.33;1776998;80;21551;-60
2021/06/20 03:29:30;;;;;;;2.00;1.80;;;;;;;13.69;80.49;95664.53;1761751;80;21003;-60
2021/06/20 03:31:56;;;;;;;3.40;1.60;;;;;;;13.76;80.54;95655.48;1771298;80;21073;-60
2021/06/20 03:34:23;;;;;;;2.23;2.00;;;;;;;13.79;81.15;95659.36;1763551;80;21571;-60
2021/06/20 03:36:50;;;;;;;3.97;2.30;;;;;;;13.92;81.21;95655.02;1768882;80;21097;-60
2021/06/20 03:39:17;;;;;;;3.63;2.03;;;;;;;14.03;80.86;95660.38;1768879;80;21049;-60
2021/06/20 03:41:45;;;;;;;2.20;2.00;;;;;;;14.11;80.46;95666.80;1779050;80;21092;-60
2021/06/20 03:44:11;;;;;;;2.17;1.97;;;;;;;14.21;79.94;95684.60;1734245;80;21065;-60
2021/06/20 03:46:38;;;;;;;2.23;1.93;;;;;;;14.25;79.64;95684.46;1784586;80;21094;-61
2021/06/20 03:49:05;;;;;;;3.33;1.83;;;;;;;14.30;79.26;95673.70;1763803;80;21013;-61
2021/06/20 03:51:33;;;;;;;2.43;1.73;;;;;;;14.36;79.35;95677.94;1775071;80;21070;-60
2021/06/20 03:54:00;;;;;;;4.20;1.50;;;;;;;14.48;79.24;95680.20;1786081;80;21667;-60
2021/06/20 03:56:27;;;;;;;3.47;1.80;;;;;;;14.56;78.79;95671.56;1789115;80;21054;-60
2021/06/20 03:58:54;;;;;;;2.23;1.83;;;;;;;14.55;78.81;95664.52;1783405;80;21019;-60
2021/06/20 04:01:21;;;;;;;2.77;1.65;;;;;;;14.56;79.21;95666.71;1765954;80;21172;-60
2021/06/20 04:03:48;;;;;;;1.70;1.60;;;;;;;14.68;79.26;95659.67;1768374;80;21066;-60
2021/06/20 04:06:15;;;;;;;1.60;1.50;;;;;;;14.79;78.73;95653.55;1788074;80;21071;-60
2021/06/20 04:08:41;;;;;;;1.30;1.20;;;;;;;14.92;78.51;95656.19;1783432;80;21539;-60
2021/06/20 04:11:08;;;;;;;1.70;1.20;;;;;;;15.00;78.30;95661.23;1769697;80;21113;-60
2021/06/20 04:13:34;;;;;;;1.20;1.10;;;;;;;15.05;78.28;95655.77;1769154;80;21002;-60
2021/06/20 04:16:01;;;;;;;1.40;1.12;;;;;;;15.17;77.88;95654.44;1767423;80;21058;-61
2021/06/20 04:18:28;;;;;;;2.15;1.07;;;;;;;15.28;77.42;95653.61;1774898;80;20987;-60
2021/06/20 04:20:54;;;;;;;1.52;1.30;;;;;;;15.38;76.76;95659.47;1787497;80;21019;-60
2021/06/20 04:23:22;;;;;;;2.15;1.00;;;;;;;15.49;76.45;95654.61;1768728;80;21547;-60
2021/06/20 04:25:49;;;;;;;1.20;1.10;;;;;;;15.59;76.17;95658.19;1776498;80;20966;-60
2021/06/20 04:28:16;;;;;;;3.20;1.30;;;;;;;15.73;76.32;95659.52;1775453;80;21006;-60
2021/06/20 04:30:43;;;;;;;1.20;1.10;;;;;;;15.87;76.00;95661.64;1762860;80;21037;-60
2021/06/20 04:33:09;;;;;;;1.10;1.05;;;;;;;15.95;75.03;95655.13;1785288;80;21112;-60
2021/06/20 04:35:36;;;;;;;2.22;1.27;;;;;;;16.05;74.64;95652.08;1759810;80;20985;-60
2021/06/20 04:38:02;;;;;;;1.87;1.07;;;;;;;16.18;74.57;95650.69;1773575;80;21082;-60
2021/06/20 04:40:29;;;;;;;3.83;1.20;;;;;;;16.29;74.57;95649.78;1789174;80;20983;-60
2021/06/20 04:43:05;;;;;;;1.87;1.22;;;;;;;16.34;73.75;95638.95;1760053;80;21001;-60
2021/06/20 04:45:27;;;;;;;1.45;1.10;;;;;;;16.37;73.42;95631.70;1763145;80;21025;-60
2021/06/20 04:47:54;;;;;;;1.42;0.90;;;;;;;16.44;73.81;95634.52;1766639;80;21100;-60
2021/06/20 04:50:21;;;;;;;1.37;1.20;;;;;;;16.53;73.82;95626.63;1781065;80;21547;-61
2021/06/20 04:52:47;;;;;;;1.30;1.20;;;;;;;16.70;74.03;95627.70;1762567;80;21018;-60
2021/06/20 04:55:15;;;;;;;1.60;1.50;;;;;;;16.82;73.98;95628.08;1773929;80;21531;-60
2021/06/20 04:57:42;;;;;;;2.65;1.35;;;;;;;16.95;73.14;95630.23;1780121;80;20990;-60
2021/06/20 05:00:11;;;;;;;1.82;1.50;;;;;;;17.02;73.26;95621.90;1778271;80;21027;-60
2021/06/20 05:02:38;;;;;;;2.83;1.80;;;;;;;17.14;73.08;95619.64;1777629;80;21016;-60
2021/06/20 05:05:07;;;;;;;2.17;1.80;;;;;;;17.21;72.87;95617.08;1769043;80;21017;-60
2021/06/20 05:07:34;;;;;;;2.00;1.67;;;;;;;17.27;72.49;95616.36;1768929;80;20982;-60
2021/06/20 05:10:01;;;;;;;2.45;1.60;;;;;;;17.38;72.82;95619.01;1774891;80;21457;-60
2021/06/20 05:12:28;;;;;;;2.27;1.70;;;;;;;17.46;72.24;95613.74;1766892;80;21003;-60
2021/06/20 05:14:55;;;;;;;2.60;1.60;;;;;;;17.53;72.14;95612.98;1784970;80;21020;-60
2021/06/20 05:17:22;;;;;;;1.60;1.50;;;;;;;17.58;71.15;95612.77;1763951;80;21077;-60
2021/06/20 05:19:48;;;;;;;2.40;2.20;;;;;;;17.66;71.62;95605.27;1759995;80;21065;-60
2021/06/20 05:22:15;;;;;;;2.00;1.90;;;;;;;17.77;71.17;95598.13;1776179;80;21119;-60
2021/06/20 05:24:42;;;;;;;1.70;1.60;;;;;;;17.86;70.90;95589.22;1783519;80;21065;-60
2021/06/20 05:27:09;;;;;;;2.72;1.60;;;;;;;17.98;70.49;95589.59;1771153;80;21554;-60
2021/06/20 05:29:38;;;;;;;1.80;1.50;;;;;;;18.07;69.91;95576.67;1772914;80;20994;-61
2021/06/20 05:32:06;;;;;;;2.00;1.80;;;;;;;18.20;70.09;95574.74;1763574;80;21054;-60
2021/06/20 05:34:32;;;;;;;2.17;1.52;;;;;;;18.27;68.91;95560.13;1778069;80;21479;-60
2021/06/20 05:36:59;;;;;;;1.45;1.35;;;;;;;18.34;69.37;95554.44;1763809;80;21009;-60
2021/06/20 05:39:25;;;;;;;1.32;1.00;;;;;;;18.48;69.21;95548.86;1753527;80;21066;-60
2021/06/20 05:41:52;;;;;;;1.35;1.25;;;;;;;18.51;66.51;95536.67;1759797;80;21018;-60
2021/06/20 05:44:19;;;;;;;1.50;1.37;;;;;;;18.63;67.38;95524.50;1773245;80;21480;-60
2021/06/20 05:46:46;;;;;;;3.30;1.50;;;;;;;18.74;66.94;95522.98;1764121;80;21042;-60
2021/06/20 05:49:12;;;;;;;1.60;1.50;;;;;;;18.92;67.35;95523.86;1787239;80;21010;-61
2021/06/20 05:51:39;;;;;;;1.67;1.57;;;;;;;18.94;65.58;95522.46;1763858;80;21051;-60
2021/06/20 05:54:05;;;;;;;2.52;1.70;;;;;;;19.00;66.14;95523.02;1771575;80;21073;-60
2021/06/20 05:56:32;;;;;;;1.60;1.42;;;;;;;19.08;66.37;95525.28;1783281;80;21086;-60
2021/06/20 05:58:59;;;;;;;1.50;1.40;;;;;;;19.20;66.23;95535.33;1783617;80;21026;-60
2021/06/20 06:01:25;;;;;;;2.05;1.87;;;;;;;19.33;65.78;95532.86;1773033;80;21549;-60
2021/06/20 06:03:52;;;;;;;1.80;1.65;;;;;;;19.41;65.81;95529.28;1768746;80;21539;-61
2021/06/20 06:06:18;;;;;;;4.08;2.05;;;;;;;19.55;66.38;95515.61;1771097;80;21057;-60
2021/06/20 06:08:45;;;;;;;1.60;1.50;;;;;;;19.64;65.42;95524.00;1782941;80;21003;-60
2021/06/20 06:11:11;;;;;;;1.80;1.70;;;;;;;19.64;65.42;95524.00;1784638;80;21078;-60
2021/06/20 06:13:38;;;;;;;1.70;1.60;;;;;;;19.66;64.90;95523.92;1785772;80;21027;-60
2021/06/20 06:16:05;;;;;;;1.72;1.50;;;;;;;19.70;64.27;95524.64;1772794;80;21527;-60
2021/06/20 06:18:31;;;;;;;1.60;1.50;;;;;;;19.80;64.44;95528.05;1784206;80;21022;-61
2021/06/20 06:20:58;;;;;;;4.78;1.62;;;;;;;19.92;64.49;95531.00;1772044;80;21169;-61
2021/06/20 06:23:24;;;;;;;2.35;1.40;;;;;;;19.98;63.86;95532.88;1785726;80;21011;-60
2021/06/20 06:25:51;;;;;;;1.50;1.40;;;;;;;20.16;65.02;95536.31;1760364;80;21013;-60
2021/06/20 06:28:18;;;;;;;1.90;1.50;;;;;;;20.23;63.20;95528.28;1781633;80;21046;-61
2021/06/20 06:30:44;;;;;;;3.20;1.40;;;;;;;20.36;63.00;95511.05;1789892;80;21544;-60
2021/06/20 06:33:11;;;;;;;1.60;1.50;;;;;;;20.36;63.00;95511.05;1764289;80;21353;-60
2021/06/20 06:35:38;;;;;;;1.57;1.35;;;;;;;20.53;63.45;95517.59;1761062;80;21006;-60
2021/06/20 06:38:04;;;;;;;1.50;1.40;;;;;;;20.51;61.19;95510.14;1782586;80;21030;-60
2021/06/20 06:40:32;;;;;;;1.32;1.22;;;;;;;20.60;62.98;95511.43;1760008;80;21049;-61
2021/06/20 06:42:59;;;;;;;1.42;1.32;;;;;;;20.66;61.26;95516.90;1759765;80;21535;-61
2021/06/20 06:45:25;;;;;;;1.10;1.10;;;;;;;20.81;62.63;95518.66;1766277;80;21083;-61
2021/06/20 06:47:52;;;;;;;1.30;1.20;;;;;;;20.96;61.03;95524.92;1784945;80;20995;-60
2021/06/20 06:50:19;;;;;;;1.30;1.20;;;;;;;21.02;60.51;95523.70;1781783;80;21011;-60
2021/06/20 06:52:47;;;;;;;1.55;1.30;;;;;;;21.13;60.81;95522.55;1786799;80;21039;-60
2021/06/20 06:55:14;;;;;;;1.40;1.30;;;;;;;21.25;60.17;95526.31;1760121;80;21073;-60
2021/06/20 06:57:41;;;;;;;1.55;1.40;;;;;;;21.36;59.58;95525.16;1773098;80;21034;-60
2021/06/20 07:00:11;;;;;;;2.50;1.40;;;;;;;21.44;60.13;95518.84;1782026;80;20990;-60
2021/06/20 07:02:38;;;;;;;1.35;1.25;;;;;;;21.61;60.90;95530.73;1765950;80;21035;-60
2021/06/20 07:05:06;;;;;;;1.77;1.20;;;;;;;21.77;61.22;95521.70;1770110;80;21018;-60
2021/06/20 07:07:33;;;;;;;1.62;1.20;;;;;;;21.91;60.53;95528.41;1763717;80;21018;-60
2021/06/20 07:10:01;;;;;;;1.40;1.30;;;;;;;22.02;60.55;95524.56;1760091;80;21049;-60
2021/06/20 07:12:29;;;;;;;2.45;1.57;;;;;;;22.09;60.03;95522.80;1759902;80;21123;-60
2021/06/20 07:14:58;;;;;;;2.85;1.57;;;;;;;22.21;60.22;95524.23;1772965;80;21125;-60
2021/06/20 07:17:24;;;;;;;1.40;1.30;;;;;;;22.35;59.34;95527.83;1764098;80;21015;-60
2021/06/20 07:19:51;;;;;;;2.20;1.45;;;;;;;22.41;59.22;95532.81;1772393;80;21085;-61
2021/06/20 07:22:18;;;;;;;1.40;1.30;;;;;;;22.42;58.29;95529.15;1784334;80;21018;-62
2021/06/20 07:24:45;;;;;;;2.12;1.45;;;;;;;22.45;59.81;95536.55;1775207;80;21519;-60
2021/06/20 07:27:13;;;;;;;2.47;1.70;;;;;;;22.56;59.76;95537.16;1781250;80;21098;-60
2021/06/20 07:29:45;;;;;;;3.12;1.70;;;;;;;22.66;59.82;95537.41;1787257;80;20972;-60
2021/06/20 07:32:12;;;;;;;1.80;1.70;;;;;;;22.71;58.73;95545.18;1779438;80;21089;-60
2021/06/20 07:34:39;;;;;;;2.08;1.57;;;;;;;22.71;58.37;95550.56;1783560;80;21539;-60
2021/06/20 07:37:05;;;;;;;1.80;1.70;;;;;;;22.70;58.06;95553.70;1759802;80;21057;-61
2021/06/20 07:39:33;;;;;;;2.17;2.00;;;;;;;22.76;58.48;95551.11;1760188;80;20979;-61
2021/06/20 07:42:01;;;;;;;3.20;2.10;;;;;;;22.86;60.21;95553.55;1761253;80;21474;-62
2021/06/20 07:44:27;;;;;;;2.42;1.90;;;;;;;22.81;59.17;95557.04;1782431;80;21504;-61
2021/06/20 07:46:54;;;;;;;1.85;1.75;;;;;;;22.80;58.21;95552.61;1787165;80;21050;-61
2021/06/20 07:49:20;;;;;;;2.60;1.90;;;;;;;22.92;58.63;95544.20;1774341;80;21083;-60
2021/06/20 07:51:47;;;;;;;1.80;1.70;;;;;;;23.07;58.77;95539.14;1772535;80;21056;-60
2021/06/20 07:54:14;;;;;;;1.85;1.75;;;;;;;23.19;57.84;95530.22;1779781;80;21536;-60
2021/06/20 07:56:41;;;;;;;1.70;1.60;;;;;;;23.23;57.73;95526.33;1785700;80;21011;-60
2021/06/20 07:59:08;;;;;;;1.92;1.80;;;;;;;23.35;58.20;95531.34;1771437;80;21081;-60
2021/06/20 08:01:34;;;;;;;2.22;1.47;;;;;;;23.47;56.97;95534.52;1763613;80;21126;-60
2021/06/20 08:04:01;;;;;;;1.70;1.60;;;;;;;23.58;56.19;95533.75;1788106;80;21051;-60
2021/06/20 08:06:27;;;;;;;1.77;1.42;;;;;;;23.66;56.92;95530.05;1777729;80;21019;-61
2021/06/20 08:08:57;;;;;;;1.87;1.40;;;;;;;23.69;54.17;95529.83;1773898;80;21484;-60
2021/06/20 08:11:25;;;;;;;1.50;1.40;;;;;;;23.73;54.51;95527.79;1778459;80;21569;-61
2021/06/20 08:13:52;;;;;;;1.40;1.30;;;;;;;23.78;54.69;95528.81;1776630;80;21022;-61
2021/06/20 08:16:20;;;;;;;1.50;1.30;;;;;;;23.87;55.18;95529.51;1768088;80;21023;-60
2021/06/20 08:18:47;;;;;;;1.95;1.50;;;;;;;23.96;52.46;95527.47;1784348;80;21312;-60
2021/06/20 08:21:14;;;;;;;1.62;1.52;;;;;;;23.98;52.80;95528.23;1788441;80;21018;-60
2021/06/20 08:23:40;;;;;;;1.62;1.40;;;;;;;23.98;52.34;95529.08;1763841;80;21615;-60
2021/06/20 08:26:07;;;;;;;1.80;1.70;;;;;;;24.07;50.69;95535.66;1788536;80;21489;-60
2021/06/20 08:28:35;;;;;;;1.40;1.22;;;;;;;24.08;52.03;95536.51;1771645;80;21081;-60
2021/06/20 08:31:02;;;;;;;1.75;1.60;;;;;;;24.16;51.29;95532.75;1764380;80;21031;-61
2021/06/20 08:33:29;;;;;;;1.67;1.57;;;;;;;24.35;52.54;95534.97;1784401;80;21554;-61
2021/06/20 08:35:56;;;;;;;2.83;1.40;;;;;;;24.50;50.54;95534.35;1776484;80;21009;-61
2021/06/20 08:38:26;;;;;;;2.42;1.47;;;;;;;24.47;50.32;95534.55;1774215;80;21006;-60
2021/06/20 08:40:57;;;;;;;1.87;1.45;;;;;;;24.54;50.52;95527.73;1776682;80;21014;-60
2021/06/20 08:43:24;;;;;;;1.47;1.37;;;;;;;24.62;49.26;95534.78;1781009;80;21165;-61
2021/06/20 08:45:55;;;;;;;1.65;1.55;;;;;;;24.73;49.93;95531.27;1779820;80;21014;-61
2021/06/20 08:48:22;;;;;;;3.17;1.75;;;;;;;24.90;48.37;95535.39;1773875;80;21064;-61
2021/06/20 08:50:51;;;;;;;1.67;1.37;;;;;;;24.91;47.66;95538.45;1777961;80;21010;-61
2021/06/20 08:53:20;;;;;;;1.40;1.30;;;;;;;24.96;48.02;95529.01;1759824;80;21013;-60
2021/06/20 08:55:48;;;;;;;1.50;1.40;;;;;;;24.93;46.76;95521.16;1777997;80;21121;-60
2021/06/20 08:58:30;;;;;;;1.50;1.40;;;;;;;24.95;48.70;95517.86;1787247;80;21049;-60
2021/06/20 09:00:58;;;;;;;2.00;1.30;;;;;;;25.18;47.65;95516.10;1774918;80;21132;-60
2021/06/20 09:03:38;;;;;;;1.80;1.70;;;;;;;25.39;48.14;95518.09;1786996;80;21030;-60
2021/06/20 09:06:16;;;;;;;1.82;1.70;;;;;;;25.38;47.45;95523.14;1762730;80;21093;-62
2021/06/20 09:08:56;;;;;;;1.42;1.32;;;;;;;25.50;48.08;95522.15;1787328;80;21131;-60
2021/06/20 09:11:35;;;;;;;2.47;1.20;;;;;;;25.70;44.38;95515.16;1777726;80;21050;-60
2021/06/20 09:14:10;;;;;;;1.60;1.50;;;;;;;25.61;41.51;95509.16;1771518;80;21057;-61
2021/06/20 09:16:50;;;;;;;1.98;1.42;;;;;;;25.66;43.44;95505.60;1780248;80;21077;-60
2021/06/20 09:19:17;;;;;;;1.60;1.40;;;;;;;25.72;41.57;95504.24;1773867;80;21066;-61
2021/06/20 09:21:55;;;;;;;1.57;1.47;;;;;;;25.81;42.91;95500.81;1772285;80;21023;-60
2021/06/20 09:24:23;;;;;;;1.57;1.47;;;;;;;26.02;43.14;95496.37;1759876;80;20994;-60
2021/06/20 09:26:55;;;;;;;1.80;1.30;;;;;;;26.20;43.96;95495.36;1763042;80;21006;-60
2021/06/20 09:29:36;;;;;;;1.52;1.42;;;;;;;26.45;43.91;95487.42;1785925;80;21514;-61
2021/06/20 09:32:09;;;;;;;1.42;1.32;;;;;;;26.58;43.82;95484.58;1778814;80;21022;-60
2021/06/20 09:34:47;;;;;;;1.32;1.27;;;;;;;26.78;41.92;95481.55;1788594;80;21074;-60
2021/06/20 09:37:18;;;;;;;1.40;1.30;;;;;;;26.91;41.24;95471.88;1789201;80;21007;-60
2021/06/20 09:39:45;;;;;;;2.15;1.57;;;;;;;26.94;38.97;95478.41;1787397;80;21552;-60
2021/06/20 09:42:15;;;;;;;1.45;1.35;;;;;;;27.01;39.73;95476.02;1776386;80;21059;-60
2021/06/20 09:44:53;;;;;;;1.15;1.15;;;;;;;27.07;40.70;95468.73;1763097;80;21025;-60
2021/06/20 09:47:23;;;;;;;1.12;1.12;;;;;;;27.12;40.10;95474.61;1763854;80;21023;-61
2021/06/20 09:49:53;;;;;;;1.20;1.20;;;;;;;27.21;38.82;95473.83;1763923;80;21074;-60
2021/06/20 09:52:32;;;;;;;1.40;1.30;;;;;;;27.24;37.22;95476.77;1764520;80;21010;-61
2021/06/20 09:55:10;;;;;;;1.57;1.47;;;;;;;27.27;39.51;95476.52;1764893;80;21053;-60
2021/06/20 09:57:43;;;;;;;1.25;1.15;;;;;;;27.41;38.56;95468.88;1762876;80;20970;-60
2021/06/20 10:00:13;;;;;;;1.60;1.12;;;;;;;27.48;37.15;95463.79;1771407;80;21057;-61
2021/06/20 10:02:43;;;;;;;1.40;1.30;;;;;;;27.56;38.37;95465.32;1788480;80;21030;-60
2021/06/20 10:05:12;;;;;;;1.32;1.20;;;;;;;27.65;36.94;95462.81;1764850;80;21002;-61
2021/06/20 10:07:39;;;;;;;1.15;1.10;;;;;;;27.65;37.51;95458.24;1773741;80;21050;-60
2021/06/20 10:10:08;;;;;;;1.50;1.40;;;;;;;27.69;36.82;95451.53;1787073;80;21552;-61
2021/06/20 10:12:36;;;;;;;1.40;1.30;;;;;;;27.69;36.58;95446.62;1775692;80;21015;-61
2021/06/20 10:15:13;;;;;;;1.77;1.30;;;;;;;27.78;36.40;95444.45;1777264;80;21018;-61
2021/06/20 10:17:47;;;;;;;1.37;1.27;;;;;;;27.97;38.03;95439.59;1771632;80;21004;-61
2021/06/20 10:20:15;;;;;;;2.02;1.60;;;;;;;28.25;38.01;95428.47;1765448;80;21029;-60
2021/06/20 10:22:48;;;;;;;1.60;1.50;;;;;;;28.54;39.42;95423.08;1759885;80;20982;-61
2021/06/20 10:25:39;;;;;;;1.25;1.22;;;;;;;28.63;35.62;95422.23;1763627;80;21081;-61
2021/06/20 10:28:13;;;;;;;1.57;1.47;;;;;;;28.61;38.30;95424.23;1780683;80;21050;-60
2021/06/20 10:30:45;;;;;;;1.67;1.57;;;;;;;28.72;38.35;95430.00;1785246;80;21508;-60
2021/06/20 10:33:18;;;;;;;1.35;1.20;;;;;;;28.89;37.10;95421.64;1760030;80;21552;-60
2021/06/20 10:36:02;;;;;;;1.42;1.32;;;;;;;29.05;37.16;95410.16;1776700;80;21019;-61
2021/06/20 10:38:38;;;;;;;1.90;1.60;;;;;;;29.10;36.53;95406.54;1783136;80;21086;-61
2021/06/20 10:41:06;;;;;;;1.67;1.37;;;;;;;29.03;35.23;95399.47;1785714;80;21066;-61
2021/06/20 10:43:33;;;;;;;1.50;1.40;;;;;;;29.18;36.44;95404.45;1789629;80;20992;-60
2021/06/20 10:45:59;;;;;;;1.70;1.60;;;;;;;29.22;34.70;95406.73;1782426;80;21055;-60
2021/06/20 10:48:35;;;;;;;1.65;1.55;;;;;;;29.26;36.03;95399.16;1784593;80;21050;-61
2021/06/20 10:51:02;;;;;;;2.00;1.70;;;;;;;29.23;35.38;95396.23;1782122;80;21468;-60
2021/06/20 10:53:34;;;;;;;1.85;1.75;;;;;;;28.89;37.46;95389.05;1759821;80;21046;-61
2021/06/20 10:56:01;;;;;;;1.65;1.55;;;;;;;28.99;36.40;95387.17;1772555;80;21504;-61
2021/06/20 10:58:41;;;;;;;2.22;1.67;;;;;;;29.10;35.29;95388.88;1753088;80;21011;-61
2021/06/20 11:01:14;;;;;;;2.50;1.65;;;;;;;28.86;35.62;95391.55;1782442;80;21010;-61
2021/06/20 11:03:48;;;;;;;2.17;2.02;;;;;;;28.37;37.75;95395.27;1775351;80;21106;-61
2021/06/20 11:06:18;;;;;;;1.67;1.57;;;;;;;28.30;37.77;95403.13;1779909;80;21030;-61
2021/06/20 11:09:01;;;;;;;1.70;1.60;;;;;;;28.09;36.89;95407.80;1770080;80;21072;-61
2021/06/20 11:11:34;;;;;;;1.70;1.60;;;;;;;28.14;39.21;95400.09;1775921;80;21136;-61
2021/06/20 11:14:07;;;;;;;1.62;1.52;;;;;;;28.21;37.04;95408.89;1764621;80;21065;-61
2021/06/20 11:16:43;;;;;;;2.52;1.45;;;;;;;28.50;37.93;95408.10;1770389;80;21054;-60
2021/06/20 11:19:22;;;;;;;2.17;1.70;;;;;;;28.79;36.70;95409.94;1764385;80;21050;-61
2021/06/20 11:22:05;;;;;;;5.30;1.95;;;;;;;28.75;36.06;95407.14;1784628;80;21023;-61
2021/06/20 11:24:39;;;;;;;1.67;1.57;;;;;;;28.88;35.10;95409.92;1759841;80;21041;-60
2021/06/20 11:27:16;;;;;;;1.65;1.55;;;;;;;29.02;35.90;95411.83;1763990;80;21005;-60
2021/06/20 11:29:50;;;;;;;1.42;1.32;;;;;;;29.35;36.66;95413.19;1775014;80;21027;-65
2021/06/20 11:32:27;;;;;;;3.27;1.50;;;;;;;29.26;35.33;95408.66;1760187;80;21642;-60
2021/06/20 11:35:02;;;;;;;2.65;1.52;;;;;;;29.16;35.85;95403.77;1766975;80;21041;-60
2021/06/20 11:37:36;;;;;;;1.70;1.60;;;;;;;29.30;36.35;95410.06;1786775;80;21020;-61
2021/06/20 11:40:16;;;;;;;2.00;1.80;;;;;;;29.23;36.23;95405.73;1769782;80;21196;-61
2021/06/20 11:42:49;;;;;;;2.12;1.45;;;;;;;29.17;37.07;95403.59;1777735;80;21058;-61